»·PEaware :: EJA550 KEGE-KSFO

EJA550 :: KEGE-KSFO

FLIGHT INFORMATION

Flight Status: Arrived
Operator:
Netjets Aviation
More flights by this operator :: More flights under this callsign
Pilot: Isaac R. (8401)
Aircraft: CESSNA 550 CITATION 2/S2/BRAVO
(C550)
More flights by this aircraft type
Origin: KEGE Eagle Co Regl
United States
Destination: KSFO San Francisco Intl
United States
More flights between these airports :: More routes between these airports
Route: +GYPSM6 RLG WEEMN Q136 OAL INYOE DYAMD5
File this flight plan on PilotEdge
Remarks:
Altitude:
(Current/Filed)
38,000ft
Speed:
(Current/Filed)
470kts
Departed: 20-Jan-19 01:44 PM
Arrived: 20-Jan-19 04:38 PM
Distance/Time
Traveled:
734nm/2:54
Distance/Time
To Go:
Arrived

Flight Plot

Page will automatically refresh every two minutes.

Flight plan parsing failed; only flown route is shown


Map Options




Map Legend


Flown Route
Filed Route
Departure Airport
Arrival Airport
Navaid (VOR, NDB)
Fix

Horizontal Profiles

Position Reports

Time Latitude Longitude Heading Altitude Ground
Speed
20-Jan-19 13:33 39.641330 -106.909642 260 6518ft 0kts
20-Jan-19 13:34 39.641330 -106.909642 260 6518ft 0kts
20-Jan-19 13:35 39.641330 -106.909642 260 6518ft 0kts
20-Jan-19 13:36 39.641330 -106.909642 260 6518ft 0kts
20-Jan-19 13:37 39.641330 -106.909642 260 6518ft 0kts
20-Jan-19 13:37 39.641330 -106.909642 260 6518ft 0kts
20-Jan-19 13:39 39.641322 -106.909727 267 6518ft 3kts
20-Jan-19 13:39 39.642432 -106.908783 77 6518ft 9kts
20-Jan-19 13:40 39.643027 -106.903361 81 6518ft 14kts
20-Jan-19 13:41 39.643503 -106.900214 36 6518ft 0kts
20-Jan-19 13:42 39.644399 -106.901070 262 6518ft 11kts
20-Jan-19 13:43 39.640989 -106.935376 259 7483ft 140kts
20-Jan-19 13:44 39.614116 -106.977261 237 10158ft 164kts
20-Jan-19 13:45 39.635523 -107.015513 338 13274ft 182kts
20-Jan-19 13:46 39.680828 -107.040421 324 16231ft 174kts
20-Jan-19 13:47 39.724157 -107.068832 309 18903ft 170kts
20-Jan-19 13:48 39.727154 -107.127297 264 21142ft 177kts
20-Jan-19 13:49 39.719516 -107.191231 265 23355ft 181kts
20-Jan-19 13:50 39.711577 -107.261483 265 24941ft 206kts
20-Jan-19 13:51 39.703092 -107.335306 265 26893ft 207kts
20-Jan-19 13:52 39.694607 -107.409352 266 28661ft 207kts
20-Jan-19 13:53 39.686001 -107.483953 266 30208ft 209kts
20-Jan-19 13:54 39.677314 -107.558568 266 31598ft 208kts
20-Jan-19 13:55 39.671249 -107.633106 267 32492ft 207kts
20-Jan-19 13:56 39.663464 -107.707543 265 33325ft 208kts
20-Jan-19 13:57 39.654708 -107.781996 265 34093ft 209kts
20-Jan-19 13:58 39.645786 -107.857145 265 34781ft 210kts
20-Jan-19 13:59 39.636776 -107.932574 265 35402ft 213kts
20-Jan-19 14:00 39.627609 -108.008857 265 36026ft 214kts
20-Jan-19 14:01 39.618389 -108.085156 265 36630ft 215kts
20-Jan-19 14:02 39.609046 -108.162097 265 37180ft 217kts
20-Jan-19 14:03 39.599512 -108.240122 265 37722ft 219kts
20-Jan-19 14:04 39.589948 -108.317961 264 38187ft 222kts
20-Jan-19 14:05 39.579750 -108.400962 264 38212ft 243kts
20-Jan-19 14:06 39.568688 -108.490001 264 38211ft 256kts
20-Jan-19 14:07 39.557006 -108.583157 264 38207ft 265kts
20-Jan-19 14:08 39.544976 -108.678495 263 38208ft 271kts
20-Jan-19 14:09 39.532660 -108.775434 263 38207ft 275kts
20-Jan-19 14:10 39.520062 -108.873937 263 38187ft 278kts
20-Jan-19 14:11 39.507331 -108.972774 262 38187ft 279kts
20-Jan-19 14:12 39.494419 -109.072341 262 38187ft 280kts
20-Jan-19 14:13 39.481433 -109.171800 262 38187ft 280kts
20-Jan-19 14:14 39.468350 -109.271307 262 38187ft 281kts
20-Jan-19 14:15 39.455120 -109.371207 262 38188ft 281kts
20-Jan-19 14:16 39.441856 -109.470757 261 38189ft 281kts
20-Jan-19 14:17 39.428469 -109.570497 261 38194ft 280kts
20-Jan-19 14:18 39.415051 -109.669763 261 38195ft 280kts
20-Jan-19 14:19 39.401566 -109.768971 261 38197ft 280kts
20-Jan-19 14:20 39.387959 -109.868383 261 38200ft 280kts
20-Jan-19 14:21 39.374303 -109.967461 261 38200ft 280kts
20-Jan-19 14:22 39.360990 -110.066899 261 38200ft 280kts
20-Jan-19 14:23 39.347774 -110.165766 260 38200ft 279kts
20-Jan-19 14:24 39.334444 -110.264533 260 38200ft 279kts
20-Jan-19 14:25 39.320975 -110.363528 260 38200ft 279kts
20-Jan-19 14:26 39.307502 -110.462006 260 38199ft 278kts
20-Jan-19 14:27 39.293911 -110.560695 260 38199ft 278kts
20-Jan-19 14:28 39.280284 -110.658959 260 38199ft 278kts
20-Jan-19 14:29 39.266532 -110.757520 260 38198ft 278kts
20-Jan-19 14:30 39.252761 -110.855573 260 38191ft 278kts
20-Jan-19 14:31 39.238924 -110.953464 260 38190ft 277kts
20-Jan-19 14:32 39.224970 -111.051584 260 38189ft 277kts
20-Jan-19 14:33 39.210989 -111.149306 259 38188ft 277kts
20-Jan-19 14:34 39.196891 -111.247171 259 38186ft 277kts
20-Jan-19 14:35 39.182771 -111.344591 259 38184ft 276kts
20-Jan-19 14:36 39.168546 -111.442146 259 38183ft 276kts
20-Jan-19 14:37 39.154280 -111.539341 259 38156ft 276kts
20-Jan-19 14:38 39.139937 -111.636547 259 38145ft 276kts
20-Jan-19 14:39 39.125456 -111.734069 259 38122ft 276kts
20-Jan-19 14:40 39.110896 -111.831535 259 38066ft 277kts
20-Jan-19 14:41 39.096266 -111.928881 258 38058ft 277kts
20-Jan-19 14:42 39.081513 -112.026479 258 38051ft 277kts
20-Jan-19 14:43 39.066752 -112.123515 258 38045ft 276kts
20-Jan-19 14:44 39.051889 -112.220690 257 38039ft 276kts
20-Jan-19 14:45 39.036993 -112.317448 257 38037ft 276kts
20-Jan-19 14:46 39.022020 -112.414159 257 38037ft 276kts
20-Jan-19 14:47 39.006926 -112.511161 257 38037ft 276kts
20-Jan-19 14:48 38.991791 -112.607837 257 38037ft 276kts
20-Jan-19 14:49 38.976523 -112.704804 257 38041ft 276kts
20-Jan-19 14:50 38.961232 -112.801319 257 38046ft 276kts
20-Jan-19 14:51 38.945866 -112.897848 256 38050ft 276kts
20-Jan-19 14:52 38.930351 -112.994696 256 38054ft 276kts
20-Jan-19 14:53 38.914806 -113.091238 256 38051ft 276kts
20-Jan-19 14:54 38.899098 -113.188109 256 38042ft 276kts
20-Jan-19 14:55 38.883375 -113.284699 256 38039ft 277kts
20-Jan-19 14:56 38.867572 -113.381282 256 38040ft 277kts
20-Jan-19 14:57 38.851620 -113.478169 256 38042ft 277kts
20-Jan-19 14:58 38.835632 -113.574737 256 38044ft 277kts
20-Jan-19 14:59 38.819509 -113.671598 255 38039ft 277kts
20-Jan-19 15:00 38.803363 -113.768156 255 38040ft 277kts
20-Jan-19 15:01 38.787109 -113.864690 255 38042ft 277kts
20-Jan-19 15:02 38.770721 -113.961541 255 38043ft 277kts
20-Jan-19 15:03 38.754307 -114.058058 255 38042ft 277kts
20-Jan-19 15:04 38.737774 -114.154741 254 38043ft 277kts
20-Jan-19 15:05 38.721211 -114.251109 254 38044ft 277kts
20-Jan-19 15:06 38.704581 -114.347356 254 38045ft 277kts
20-Jan-19 15:07 38.687807 -114.443930 254 38046ft 277kts
20-Jan-19 15:08 38.671028 -114.540029 254 38049ft 277kts
20-Jan-19 15:09 38.654113 -114.636398 254 38030ft 277kts
20-Jan-19 15:10 38.637165 -114.732481 254 38027ft 277kts
20-Jan-19 15:11 38.620154 -114.828398 254 38026ft 276kts
20-Jan-19 15:12 38.603035 -114.924458 254 38016ft 276kts
20-Jan-19 15:13 38.585915 -115.020049 253 38014ft 276kts
20-Jan-19 15:14 38.568672 -115.115805 253 38012ft 275kts
20-Jan-19 15:15 38.551455 -115.210947 253 38014ft 275kts
20-Jan-19 15:16 38.534189 -115.305889 253 38014ft 274kts
20-Jan-19 15:17 38.516824 -115.400931 252 38013ft 274kts
20-Jan-19 15:18 38.499436 -115.495629 252 38006ft 274kts
20-Jan-19 15:19 38.481919 -115.590547 252 38006ft 274kts
20-Jan-19 15:20 38.464398 -115.685029 252 38006ft 274kts
20-Jan-19 15:21 38.446800 -115.779486 252 38006ft 274kts
20-Jan-19 15:22 38.429055 -115.874261 252 38007ft 274kts
20-Jan-19 15:24 38.411289 -115.968706 252 38008ft 274kts
20-Jan-19 15:25 38.393369 -116.063499 252 37996ft 274kts
20-Jan-19 15:26 38.375443 -116.157888 252 37998ft 274kts
20-Jan-19 15:27 38.357465 -116.252119 251 38002ft 274kts
20-Jan-19 15:28 38.339326 -116.346582 251 38002ft 273kts
20-Jan-19 15:29 38.318463 -116.439440 249 38002ft 273kts
20-Jan-19 15:30 38.297328 -116.532371 250 38005ft 272kts
20-Jan-19 15:31 38.276430 -116.624812 249 38009ft 271kts
20-Jan-19 15:32 38.255520 -116.717004 249 38012ft 271kts
20-Jan-19 15:33 38.234508 -116.809269 249 38015ft 270kts
20-Jan-19 15:34 38.213543 -116.900963 249 38018ft 270kts
20-Jan-19 15:35 38.192475 -116.992735 249 38021ft 269kts
20-Jan-19 15:36 38.171462 -117.083907 249 38022ft 269kts
20-Jan-19 15:37 38.150401 -117.174925 249 38022ft 268kts
20-Jan-19 15:38 38.129258 -117.265948 249 38020ft 268kts
20-Jan-19 15:39 38.108302 -117.356665 248 38016ft 268kts
20-Jan-19 15:40 38.087290 -117.447609 248 38009ft 267kts
20-Jan-19 15:40 38.069797 -117.522966 248 38003ft 267kts
20-Jan-19 15:42 38.045212 -117.628447 248 37994ft 267kts
20-Jan-19 15:43 38.024004 -117.719058 248 37985ft 267kts
20-Jan-19 15:44 38.007028 -117.811180 254 37977ft 271kts
20-Jan-19 15:44 37.998908 -117.890697 255 37968ft 272kts
20-Jan-19 15:46 37.987412 -118.001497 254 37958ft 272kts
20-Jan-19 15:46 37.979014 -118.080639 254 37952ft 272kts
20-Jan-19 15:47 37.968820 -118.175877 254 37946ft 272kts
20-Jan-19 15:48 37.958592 -118.270717 254 37942ft 272kts
20-Jan-19 15:49 37.948258 -118.365843 254 37959ft 271kts
20-Jan-19 15:50 37.937910 -118.460375 254 37987ft 271kts
20-Jan-19 15:51 37.927488 -118.554835 254 37994ft 271kts
20-Jan-19 15:52 37.916944 -118.649687 254 38001ft 271kts
20-Jan-19 15:53 37.906377 -118.744029 254 38006ft 270kts
20-Jan-19 15:54 37.893124 -118.837447 252 38011ft 268kts
20-Jan-19 15:55 37.881617 -118.930895 253 38016ft 269kts
20-Jan-19 15:56 37.870906 -119.024403 253 38015ft 268kts
20-Jan-19 15:57 37.860152 -119.117721 253 38014ft 266kts
20-Jan-19 15:58 37.849380 -119.210451 253 38018ft 265kts
20-Jan-19 15:59 37.838589 -119.302727 252 38017ft 263kts
20-Jan-19 16:00 37.827833 -119.394079 252 38016ft 262kts
20-Jan-19 16:01 37.817079 -119.484804 252 38018ft 260kts
20-Jan-19 16:02 37.806270 -119.575362 252 38020ft 259kts
20-Jan-19 16:03 37.795464 -119.665302 252 38022ft 258kts
20-Jan-19 16:04 37.784598 -119.755158 252 38024ft 257kts
20-Jan-19 16:05 37.773734 -119.844410 251 38032ft 256kts
20-Jan-19 16:06 37.762834 -119.933366 251 38039ft 256kts
20-Jan-19 16:07 37.751664 -120.023847 251 36996ft 260kts
20-Jan-19 16:08 37.740435 -120.114376 251 35599ft 262kts
20-Jan-19 16:09 37.728944 -120.206157 254 34197ft 266kts
20-Jan-19 16:10 37.717150 -120.300004 255 32801ft 274kts
20-Jan-19 16:11 37.705048 -120.395678 255 31404ft 278kts
20-Jan-19 16:12 37.693528 -120.493548 257 29937ft 283kts
20-Jan-19 16:13 37.681997 -120.592722 258 28441ft 288kts
20-Jan-19 16:14 37.670116 -120.693641 258 26939ft 292kts
20-Jan-19 16:15 37.657948 -120.795297 258 25482ft 295kts
20-Jan-19 16:16 37.645563 -120.898054 259 23976ft 295kts
20-Jan-19 16:17 37.635423 -120.982809 257 22458ft 213kts
20-Jan-19 16:18 37.625134 -121.057450 257 20929ft 223kts
20-Jan-19 16:19 37.614147 -121.139655 258 19428ft 252kts
20-Jan-19 16:20 37.601979 -121.229961 258 17934ft 273kts
20-Jan-19 16:21 37.590183 -121.325126 259 16430ft 263kts
20-Jan-19 16:22 37.580155 -121.414348 258 14929ft 253kts
20-Jan-19 16:23 37.569939 -121.502600 258 13431ft 257kts
20-Jan-19 16:24 37.559351 -121.593165 258 11929ft 262kts
20-Jan-19 16:25 37.542629 -121.680226 251 10431ft 251kts
20-Jan-19 16:26 37.522243 -121.765149 252 8927ft 254kts
20-Jan-19 16:27 37.501687 -121.850856 252 7431ft 256kts
20-Jan-19 16:28 37.495669 -121.927665 261 7001ft 196kts
20-Jan-19 16:29 37.500067 -122.005530 276 5802ft 242kts
20-Jan-19 16:30 37.503512 -122.081707 269 4504ft 213kts
20-Jan-19 16:31 37.522992 -122.144537 304 3836ft 172kts
20-Jan-19 16:32 37.548102 -122.190566 291 2549ft 164kts
20-Jan-19 16:33 37.564235 -122.243256 294 1833ft 156kts
20-Jan-19 16:34 37.583654 -122.285537 296 1387ft 123kts
20-Jan-19 16:35 37.600988 -122.326547 291 658ft 117kts
20-Jan-19 16:36 37.615846 -122.362480 293 32ft 108kts
20-Jan-19 16:37 37.623052 -122.376123 297 16ft 11kts
20-Jan-19 16:38 37.625327 -122.381527 296 16ft 15kts
20-Jan-19 16:39 37.626962 -122.382590 27 16ft 4kts
20-Jan-19 16:40 37.627773 -122.382223 202 16ft 2kts
20-Jan-19 16:41 37.627636 -122.382142 25 16ft 6kts
20-Jan-19 16:42 37.628437 -122.381604 28 16ft 0kts
20-Jan-19 16:43 37.628256 -122.380781 110 16ft 1kts
20-Jan-19 16:44 37.628248 -122.380753 109 16ft 0kts
20-Jan-19 16:45 37.628248 -122.380753 109 16ft 0kts
20-Jan-19 16:46 37.628248 -122.380753 109 16ft 0kts
20-Jan-19 16:47 37.628248 -122.380753 109 16ft 0kts

Navigation Log

Ident Type
Flight plan parsing failed, navigation log unavailable